Time;durP1;ratioP1;P1;durP2;ratioP2;P2;SDS_P1;SDS_P2;PMS_P1;PMS_P2;Temp;Humidity;BMP_temperature;BMP_pressure;BME280_temperature;BME280_humidity;BME280_pressure;Samples;Min_cycle;Max_cycle;Signal;HPM_P1;HPM_P2
2023/03/30 00:00:19;;;;;;;11.73;9.43;;;10.90;99.90;;;;;;5072129;28;20036;-85
2023/03/30 00:02:48;;;;;;;15.55;8.82;;;10.90;99.90;;;;;;5054544;28;20033;-86
2023/03/30 00:05:14;;;;;;;11.43;8.27;;;12.50;99.90;;;;;;5070533;28;20240;-86
2023/03/30 00:07:41;;;;;;;14.77;9.18;;;11.00;99.90;;;;;;5071683;28;20063;-86
2023/03/30 00:10:09;;;;;;;12.73;8.60;;;11.00;99.90;;;;;;5070391;28;20514;-86
2023/03/30 00:12:35;;;;;;;9.45;7.90;;;11.00;99.90;;;;;;5070982;28;20484;-86
2023/03/30 00:15:01;;;;;;;15.23;9.02;;;12.30;99.90;;;;;;5069632;28;20037;-86
2023/03/30 00:17:27;;;;;;;12.13;8.23;;;11.00;99.90;;;;;;5071907;28;20536;-87
2023/03/30 00:19:52;;;;;;;11.15;8.25;;;11.00;99.90;;;;;;5053110;28;20124;-84
2023/03/30 00:22:18;;;;;;;14.52;8.38;;;9.70;99.90;;;;;;5070588;28;20469;-86
2023/03/30 00:24:44;;;;;;;9.70;6.85;;;11.60;99.90;;;;;;5070014;28;20040;-85
2023/03/30 00:27:10;;;;;;;12.05;7.65;;;11.00;99.90;;;;;;5069560;28;20505;-86
2023/03/30 00:29:35;;;;;;;10.93;7.75;;;11.00;99.90;;;;;;5071755;28;20037;-86
2023/03/30 00:32:02;;;;;;;10.95;7.55;;;12.20;99.90;;;;;;5070056;28;20048;-85
2023/03/30 00:34:28;;;;;;;8.98;7.40;;;12.30;99.90;;;;;;5070498;28;20033;-86
2023/03/30 00:36:55;;;;;;;9.32;7.68;;;12.20;99.90;;;;;;5069970;28;20542;-86
2023/03/30 00:39:21;;;;;;;12.10;8.40;;;11.10;99.90;;;;;;5053104;28;20087;-86
2023/03/30 00:41:48;;;;;;;9.88;7.20;;;11.10;99.90;;;;;;5071117;28;20114;-86
2023/03/30 00:44:51;;;;;;;9.98;6.60;;;12.60;99.90;;;;;;5052567;28;20058;-86
2023/03/30 00:47:17;;;;;;;9.25;7.03;;;11.10;99.90;;;;;;5063314;28;20124;-87
2023/03/30 00:49:44;;;;;;;7.68;6.72;;;12.20;99.90;;;;;;5070837;28;20086;-87
2023/03/30 00:52:10;;;;;;;10.18;6.35;;;13.00;99.90;;;;;;5052998;28;20048;-87
2023/03/30 00:54:38;;;;;;;12.75;6.47;;;11.10;99.90;;;;;;5071236;28;20040;-87
2023/03/30 00:57:05;;;;;;;9.38;6.35;;;11.10;99.90;;;;;;5035359;28;20213;-86
2023/03/30 00:59:35;;;;;;;9.23;6.15;;;11.10;99.90;;;;;;5069765;28;20484;-86
2023/03/30 01:02:01;;;;;;;6.28;5.63;;;12.50;99.90;;;;;;5069051;28;20053;-87
2023/03/30 01:04:27;;;;;;;9.52;6.25;;;11.10;99.90;;;;;;5069443;28;20054;-86
2023/03/30 01:06:54;;;;;;;11.68;6.03;;;11.20;99.90;;;;;;5068984;28;20044;-85
2023/03/30 01:09:19;;;;;;;11.82;5.53;;;13.40;99.90;;;;;;5068851;28;20385;-86
2023/03/30 01:11:45;;;;;;;7.35;5.63;;;11.60;99.90;;;;;;5071336;28;20044;-86
2023/03/30 01:14:14;;;;;;;11.80;6.43;;;11.10;99.90;;;;;;5070153;28;20035;-86
2023/03/30 01:17:14;;;;;;;10.85;6.47;;;12.60;99.90;;;;;;5069213;28;20049;-86
2023/03/30 01:20:11;;;;;;;8.70;5.53;;;11.10;99.90;;;;;;5066163;28;20093;-86
2023/03/30 01:23:02;;;;;;;9.68;5.75;;;11.20;99.90;;;;;;5048740;28;20052;-85
2023/03/30 01:25:55;;;;;;;10.85;5.68;;;11.20;99.90;;;;;;5063742;28;20052;-87
2023/03/30 01:28:59;;;;;;;8.13;5.35;;;11.20;99.90;;;;;;5063058;28;20052;-86
2023/03/30 01:31:41;;;;;;;10.45;5.65;;;11.10;99.90;;;;;;5064166;28;20048;-87
2023/03/30 01:34:09;;;;;;;9.43;5.35;;;11.20;99.90;;;;;;5068666;28;20064;-87
2023/03/30 01:36:49;;;;;;;8.50;5.07;;;11.20;99.90;;;;;;5069442;28;20059;-86
2023/03/30 01:39:40;;;;;;;10.40;5.88;;;11.20;99.90;;;;;;5044007;28;20060;-87
2023/03/30 01:42:15;;;;;;;11.63;6.07;;;11.20;99.90;;;;;;5070104;28;20044;-86
2023/03/30 01:45:18;;;;;;;10.02;5.38;;;13.20;99.90;;;;;;5069243;28;20046;-87
2023/03/30 01:48:02;;;;;;;10.63;6.10;;;11.10;99.90;;;;;;5069032;28;20120;-87
2023/03/30 01:50:40;;;;;;;11.90;5.20;;;11.20;99.90;;;;;;5052461;28;20059;-88
2023/03/30 01:53:45;;;;;;;9.43;5.28;;;11.20;99.90;;;;;;5068842;28;20106;-87
2023/03/30 01:56:39;;;;;;;9.52;5.90;;;11.20;99.90;;;;;;5029487;28;20057;-89
2023/03/30 01:59:11;;;;;;;8.45;5.22;;;11.20;99.90;;;;;;5065900;28;20101;-88
2023/03/30 02:01:41;;;;;;;10.23;5.00;;;13.10;99.90;;;;;;5052270;28;20087;-87
2023/03/30 02:04:10;;;;;;;10.77;4.95;;;13.30;99.90;;;;;;5067735;28;20040;-86
2023/03/30 02:06:49;;;;;;;11.18;5.15;;;11.70;99.90;;;;;;5068309;28;20158;-88
2023/03/30 02:09:18;;;;;;;11.18;5.20;;;11.20;99.90;;;;;;5060879;28;20539;-88
2023/03/30 02:11:48;;;;;;;7.95;4.53;;;11.50;99.90;;;;;;5069218;28;20057;-87
2023/03/30 02:14:19;;;;;;;6.10;4.32;;;11.30;99.90;;;;;;5050699;28;20492;-88
2023/03/30 02:16:49;;;;;;;8.07;4.30;;;11.60;99.90;;;;;;5068586;28;20033;-87
2023/03/30 02:19:19;;;;;;;7.22;3.97;;;11.50;99.90;;;;;;5070636;28;20476;-87
2023/03/30 02:21:46;;;;;;;8.75;4.72;;;11.50;99.90;;;;;;5052442;28;20040;-87
2023/03/30 02:24:19;;;;;;;12.98;4.10;;;13.20;99.90;;;;;;5068931;28;20070;-85
2023/03/30 02:26:50;;;;;;;7.65;3.92;;;11.50;99.90;;;;;;5069391;28;20482;-87
2023/03/30 02:29:21;;;;;;;11.73;4.30;;;13.30;99.90;;;;;;5068580;28;20049;-87
2023/03/30 02:31:49;;;;;;;7.43;4.10;;;11.30;99.90;;;;;;5051522;28;20036;-87
2023/03/30 02:34:29;;;;;;;8.23;3.83;;;11.40;99.90;;;;;;5050395;28;20133;-87
2023/03/30 02:37:23;;;;;;;10.77;4.32;;;12.00;99.90;;;;;;5067673;28;20076;-87
2023/03/30 02:40:11;;;;;;;7.47;3.55;;;11.40;99.90;;;;;;5067898;28;20052;-87
2023/03/30 02:42:58;;;;;;;8.80;4.03;;;11.50;99.90;;;;;;5067176;28;20079;-84
2023/03/30 02:45:33;;;;;;;5.85;3.40;;;11.50;99.90;;;;;;5044958;28;20044;-86
2023/03/30 02:48:33;;;;;;;7.85;3.53;;;11.40;99.90;;;;;;5067147;28;20048;-86
2023/03/30 02:51:33;;;;;;;9.95;3.30;;;11.50;99.90;;;;;;5067672;28;20072;-85
2023/03/30 02:54:11;;;;;;;6.82;2.85;;;11.50;99.90;;;;;;5067151;28;20623;-87
2023/03/30 02:57:06;;;;;;;11.75;3.38;;;12.20;99.90;;;;;;5067487;28;20095;-87
2023/03/30 02:59:53;;;;;;;9.82;3.47;;;11.60;99.90;;;;;;5063911;28;20044;-87
2023/03/30 03:02:26;;;;;;;9.63;3.20;;;13.60;99.90;;;;;;5076433;28;20089;-86
2023/03/30 03:04:52;;;;;;;8.05;3.55;;;11.70;99.90;;;;;;5059096;28;20165;-86
2023/03/30 03:07:20;;;;;;;11.35;4.07;;;11.70;99.90;;;;;;5050768;28;20049;-86
2023/03/30 03:09:46;;;;;;;8.00;3.00;;;11.80;99.90;;;;;;5066684;28;20041;-86
2023/03/30 03:12:12;;;;;;;6.85;3.50;;;11.90;99.90;;;;;;5068336;28;20044;-86
2023/03/30 03:14:41;;;;;;;8.02;2.72;;;11.80;99.90;;;;;;5069314;28;20056;-84
2023/03/30 03:17:08;;;;;;;8.18;3.30;;;11.80;99.90;;;;;;5066347;28;20044;-86
2023/03/30 03:19:34;;;;;;;7.43;3.17;;;11.30;99.90;;;;;;5050754;28;20047;-86
2023/03/30 03:22:00;;;;;;;5.78;2.30;;;12.00;99.90;;;;;;5069288;28;20044;-86
2023/03/30 03:24:26;;;;;;;5.55;2.53;;;11.80;99.90;;;;;;5067279;28;20055;-86
2023/03/30 03:26:51;;;;;;;6.43;2.80;;;11.70;99.90;;;;;;5069091;28;20056;-87
2023/03/30 03:29:17;;;;;;;5.90;3.17;;;11.60;99.90;;;;;;5066990;28;20456;-86
2023/03/30 03:31:43;;;;;;;7.38;3.47;;;11.70;99.90;;;;;;5066010;28;20037;-86
2023/03/30 03:34:08;;;;;;;10.23;3.35;;;11.60;99.90;;;;;;5049799;28;20058;-87
2023/03/30 03:36:34;;;;;;;8.60;2.72;;;11.60;99.90;;;;;;5050699;28;20039;-86
2023/03/30 03:38:59;;;;;;;10.02;3.40;;;11.60;99.90;;;;;;5067918;28;20056;-87
2023/03/30 03:41:26;;;;;;;7.38;3.00;;;11.60;99.90;;;;;;5050675;28;20049;-86
2023/03/30 03:43:52;;;;;;;6.13;2.22;;;13.90;99.90;;;;;;5067715;28;20098;-86
2023/03/30 03:46:17;;;;;;;6.50;2.55;;;11.60;99.90;;;;;;5068699;28;20370;-87
2023/03/30 03:48:43;;;;;;;6.30;2.92;;;12.90;99.90;;;;;;5068736;28;20040;-86
2023/03/30 03:51:10;;;;;;;8.18;2.88;;;12.50;99.90;;;;;;5067354;28;20049;-87
2023/03/30 03:53:36;;;;;;;8.68;2.92;;;12.10;99.90;;;;;;5050440;28;20125;-87
2023/03/30 03:56:02;;;;;;;7.72;2.72;;;11.60;99.90;;;;;;5050176;28;20037;-86
2023/03/30 03:58:28;;;;;;;4.28;2.53;;;12.70;99.90;;;;;;5066950;28;20080;-87
2023/03/30 04:00:58;;;;;;;7.88;2.65;;;13.50;99.90;;;;;;5066842;28;20425;-87
2023/03/30 04:03:24;;;;;;;8.32;3.03;;;11.60;99.90;;;;;;5049872;28;20056;-86
2023/03/30 04:05:50;;;;;;;10.02;2.60;;;11.60;99.90;;;;;;5067601;28;20087;-86
2023/03/30 04:08:16;;;;;;;9.10;2.60;;;11.60;99.90;;;;;;5068100;28;20123;-86
2023/03/30 04:10:45;;;;;;;8.40;2.22;;;12.60;99.90;;;;;;5067355;28;20044;-86
2023/03/30 04:13:11;;;;;;;9.43;2.90;;;13.20;99.90;;;;;;5048654;28;20087;-86
2023/03/30 04:15:37;;;;;;;7.68;1.83;;;11.60;99.90;;;;;;5068161;28;20462;-87
2023/03/30 04:18:03;;;;;;;7.00;1.77;;;11.50;99.90;;;;;;5067054;28;20473;-84
2023/03/30 04:20:29;;;;;;;8.35;2.15;;;11.60;99.90;;;;;;5067816;28;20447;-86
2023/03/30 04:22:55;;;;;;;8.77;2.58;;;11.70;99.90;;;;;;5067530;28;20086;-86
2023/03/30 04:25:26;;;;;;;9.43;2.75;;;11.60;99.90;;;;;;5066712;28;20080;-87
2023/03/30 04:27:52;;;;;;;7.68;1.73;;;13.60;99.90;;;;;;5067711;28;20035;-86
2023/03/30 04:30:19;;;;;;;8.57;1.85;;;11.60;99.90;;;;;;5067744;28;20396;-86
2023/03/30 04:32:46;;;;;;;8.85;2.35;;;13.30;99.90;;;;;;5068097;28;20064;-87
2023/03/30 04:35:13;;;;;;;10.07;1.83;;;12.50;99.90;;;;;;5048530;28;20499;-86
2023/03/30 04:37:41;;;;;;;8.25;2.03;;;12.50;99.90;;;;;;5050502;28;20032;-86
2023/03/30 04:40:11;;;;;;;10.13;2.13;;;12.40;99.90;;;;;;5064948;28;21013;-86
2023/03/30 04:42:38;;;;;;;11.00;1.83;;;11.60;99.90;;;;;;5069260;28;20450;-84
2023/03/30 04:45:05;;;;;;;4.88;1.60;;;11.60;99.90;;;;;;5069403;28;20047;-86
2023/03/30 04:47:31;;;;;;;6.13;1.58;;;11.60;99.90;;;;;;5071378;28;20029;-86
2023/03/30 04:49:57;;;;;;;12.50;2.75;;;14.00;99.90;;;;;;5070179;28;20526;-86
2023/03/30 04:52:22;;;;;;;6.60;1.77;;;14.00;99.90;;;;;;5053353;28;20045;-86
2023/03/30 04:54:48;;;;;;;8.77;2.15;;;12.20;99.90;;;;;;5069564;28;20036;-86
2023/03/30 04:57:15;;;;;;;7.57;1.80;;;14.00;99.90;;;;;;5053616;28;20044;-85
2023/03/30 04:59:41;;;;;;;5.95;1.73;;;11.70;99.90;;;;;;5070212;28;20071;-86
2023/03/30 05:02:08;;;;;;;6.53;1.80;;;13.40;99.90;;;;;;5052230;28;20063;-86
2023/03/30 05:04:34;;;;;;;10.43;2.15;;;11.70;99.90;;;;;;5071216;28;20052;-86
2023/03/30 05:07:01;;;;;;;8.27;2.20;;;12.80;99.90;;;;;;5053344;28;20036;-86
2023/03/30 05:09:27;;;;;;;13.85;2.30;;;13.00;99.90;;;;;;5070444;28;20170;-85
2023/03/30 05:11:52;;;;;;;13.52;2.63;;;12.30;99.90;;;;;;5053067;28;20131;-85
2023/03/30 05:14:18;;;;;;;6.40;2.17;;;11.90;99.90;;;;;;5052292;28;20040;-86
2023/03/30 05:16:44;;;;;;;8.93;2.00;;;12.70;99.90;;;;;;5068707;28;20070;-86
2023/03/30 05:19:10;;;;;;;7.00;1.92;;;12.50;99.90;;;;;;5069286;28;20044;-86
2023/03/30 05:21:35;;;;;;;12.57;2.65;;;13.00;99.90;;;;;;5069663;28;20048;-86
2023/03/30 05:24:01;;;;;;;10.27;2.15;;;13.70;99.90;;;;;;5068268;28;20032;-86
2023/03/30 05:26:27;;;;;;;8.60;2.63;;;11.90;99.90;;;;;;5052952;28;20147;-86
2023/03/30 05:28:53;;;;;;;7.30;2.90;;;11.90;99.90;;;;;;5052560;28;20040;-86
2023/03/30 05:31:20;;;;;;;12.13;2.75;;;13.90;99.90;;;;;;5051771;28;20044;-86
2023/03/30 05:33:46;;;;;;;17.17;2.95;;;13.30;99.90;;;;;;5052747;28;20043;-86
2023/03/30 05:36:14;;;;;;;7.13;2.83;;;12.70;99.90;;;;;;5052683;28;20155;-85
2023/03/30 05:38:40;;;;;;;9.98;3.17;;;11.90;99.90;;;;;;5052034;28;20029;-87
2023/03/30 05:41:06;;;;;;;11.32;2.70;;;11.90;99.90;;;;;;5054195;28;20123;-86
2023/03/30 05:43:33;;;;;;;10.63;2.72;;;12.20;99.90;;;;;;5051485;28;20036;-88
2023/03/30 05:45:59;;;;;;;16.58;2.92;;;11.80;99.90;;;;;;5052291;28;20141;-87
2023/03/30 05:48:25;;;;;;;8.25;2.85;;;11.90;99.90;;;;;;5052435;28;20128;-88
2023/03/30 05:50:52;;;;;;;7.65;2.15;;;11.90;99.90;;;;;;5051623;28;20115;-87
2023/03/30 05:53:17;;;;;;;10.80;2.92;;;11.90;99.90;;;;;;5043218;28;20396;-88
2023/03/30 05:55:45;;;;;;;9.63;2.97;;;11.90;99.90;;;;;;5052045;28;20152;-87
2023/03/30 05:58:12;;;;;;;12.45;3.83;;;11.90;99.90;;;;;;5069001;28;20480;-87
2023/03/30 06:00:40;;;;;;;13.05;2.67;;;11.90;99.90;;;;;;5068800;28;20036;-87
2023/03/30 06:03:10;;;;;;;13.95;3.10;;;11.90;99.90;;;;;;5068161;28;20041;-87
2023/03/30 06:05:42;;;;;;;15.13;2.95;;;11.90;99.90;;;;;;5051596;28;20032;-89
2023/03/30 06:08:09;;;;;;;10.32;2.67;;;12.00;99.90;;;;;;5069596;28;20044;-86
2023/03/30 06:10:36;;;;;;;10.15;2.70;;;11.90;99.90;;;;;;5068608;28;20472;-86
2023/03/30 06:13:03;;;;;;;9.88;2.53;;;12.20;99.90;;;;;;5068262;28;20063;-87
2023/03/30 06:15:28;;;;;;;12.05;3.03;;;11.90;99.90;;;;;;5068761;28;20125;-87
2023/03/30 06:17:55;;;;;;;8.73;3.00;;;14.00;99.90;;;;;;5069838;28;20976;-87
2023/03/30 06:20:20;;;;;;;10.20;2.85;;;13.00;99.90;;;;;;5069207;28;20045;-87
2023/03/30 06:22:50;;;;;;;9.63;3.22;;;11.90;99.90;;;;;;5052585;28;20534;-86
2023/03/30 06:25:18;;;;;;;11.07;3.40;;;14.10;99.90;;;;;;5069895;28;20079;-87
2023/03/30 06:27:45;;;;;;;9.98;2.85;;;11.90;99.90;;;;;;5068376;28;20080;-87
2023/03/30 06:30:14;;;;;;;8.30;3.00;;;11.90;99.90;;;;;;5067868;28;20530;-87
2023/03/30 06:32:40;;;;;;;7.82;3.15;;;11.90;99.90;;;;;;5053613;28;20049;-86
2023/03/30 06:35:06;;;;;;;6.28;2.58;;;13.30;99.90;;;;;;5068392;28;20044;-85
2023/03/30 06:37:35;;;;;;;8.85;3.10;;;11.90;99.90;;;;;;5068576;28;20059;-88
2023/03/30 06:40:07;;;;;;;6.43;2.63;;;12.10;99.90;;;;;;5066948;28;20045;-87
2023/03/30 06:42:36;;;;;;;12.05;2.85;;;11.90;99.90;;;;;;5051802;28;20048;-87
2023/03/30 06:45:02;;;;;;;6.20;2.72;;;12.50;99.90;;;;;;5051069;28;20051;-87
2023/03/30 06:47:27;;;;;;;5.53;2.22;;;11.90;99.90;;;;;;5050679;28;20039;-86
2023/03/30 06:49:53;;;;;;;10.10;2.60;;;14.20;99.90;;;;;;5068123;28;20040;-87
2023/03/30 06:52:19;;;;;;;8.25;2.75;;;12.00;99.90;;;;;;5068414;28;20399;-88
2023/03/30 06:54:45;;;;;;;8.68;2.83;;;13.70;99.90;;;;;;5067223;28;20119;-88
2023/03/30 06:57:13;;;;;;;12.93;2.53;;;12.00;99.90;;;;;;5067449;28;20123;-87
2023/03/30 06:59:39;;;;;;;10.60;2.80;;;12.10;99.90;;;;;;5069078;28;20131;-87
2023/03/30 07:02:07;;;;;;;12.52;2.90;;;12.20;99.90;;;;;;5066391;28;20054;-87
2023/03/30 07:04:33;;;;;;;12.80;2.22;;;13.30;99.90;;;;;;5067284;28;20037;-86
2023/03/30 07:06:59;;;;;;;14.50;2.30;;;12.10;99.90;;;;;;5067066;28;20043;-87
2023/03/30 07:09:25;;;;;;;18.27;2.90;;;12.20;99.90;;;;;;5049953;28;20127;-87
2023/03/30 07:11:51;;;;;;;13.25;3.28;;;13.70;99.90;;;;;;5067550;28;20272;-86
2023/03/30 07:14:17;;;;;;;11.55;2.30;;;13.30;99.90;;;;;;5050051;28;20037;-84
2023/03/30 07:16:43;;;;;;;11.93;2.05;;;;;;;;;;5068397;28;20081;-86
2023/03/30 07:19:08;;;;;;;10.13;2.08;;;12.20;99.90;;;;;;5067137;28;20400;-86
2023/03/30 07:21:34;;;;;;;13.82;3.40;;;13.30;99.90;;;;;;5051000;28;20052;-85
2023/03/30 07:24:03;;;;;;;14.05;3.00;;;13.70;99.90;;;;;;5049609;28;20040;-84
2023/03/30 07:26:30;;;;;;;21.60;3.10;;;12.10;99.90;;;;;;5067487;28;20036;-86
2023/03/30 07:28:56;;;;;;;16.02;2.65;;;12.60;99.90;;;;;;5066507;28;20037;-85
2023/03/30 07:31:26;;;;;;;11.68;2.70;;;13.00;99.90;;;;;;5068501;28;20040;-87
2023/03/30 07:33:52;;;;;;;16.75;2.83;;;12.10;99.90;;;;;;5067343;28;20496;-87
2023/03/30 07:36:21;;;;;;;15.38;3.20;;;12.20;99.90;;;;;;5061562;28;20127;-86
2023/03/30 07:38:47;;;;;;;18.70;3.33;;;13.00;99.90;;;;;;5067562;28;20202;-86
2023/03/30 07:41:15;;;;;;;16.48;3.85;;;13.70;99.90;;;;;;5049595;28;20291;-87
2023/03/30 07:43:40;;;;;;;21.50;4.35;;;12.70;99.90;;;;;;5066820;28;20044;-85
2023/03/30 07:46:07;;;;;;;16.65;2.83;;;12.00;99.90;;;;;;5049733;28;20127;-86
2023/03/30 07:48:32;;;;;;;20.38;4.15;;;11.90;99.90;;;;;;5050446;28;20507;-86
2023/03/30 07:51:03;;;;;;;17.75;3.72;;;12.00;99.90;;;;;;5068265;28;20092;-86
2023/03/30 07:53:29;;;;;;;19.55;4.35;;;12.00;99.90;;;;;;5066955;28;20118;-85
2023/03/30 07:55:55;;;;;;;18.45;3.65;;;11.80;99.90;;;;;;5033015;28;20418;-84
2023/03/30 07:58:20;;;;;;;20.35;4.30;;;11.80;99.90;;;;;;5051127;28;20092;-83
2023/03/30 08:00:47;;;;;;;19.92;3.72;;;11.70;99.90;;;;;;5067497;28;20391;-88
2023/03/30 08:03:14;;;;;;;20.63;4.20;;;12.70;99.90;;;;;;5065672;28;20098;-85
2023/03/30 08:05:50;;;;;;;21.33;3.58;;;13.70;99.90;;;;;;5067294;28;20068;-87
2023/03/30 08:08:16;;;;;;;24.88;4.70;;;13.50;99.90;;;;;;5066697;28;20040;-87
2023/03/30 08:10:41;;;;;;;20.50;3.70;;;13.30;99.90;;;;;;5067342;28;20090;-85
2023/03/30 08:13:08;;;;;;;17.50;3.63;;;12.70;99.90;;;;;;5049710;28;20543;-84
2023/03/30 08:15:34;;;;;;;21.75;5.00;;;11.50;99.90;;;;;;5066991;28;20041;-85
2023/03/30 08:18:03;;;;;;;19.05;3.65;;;12.90;99.90;;;;;;5053049;28;20438;-85
2023/03/30 08:20:29;;;;;;;18.17;2.67;;;11.50;99.90;;;;;;5070803;28;20090;-86
2023/03/30 08:22:55;;;;;;;19.73;3.75;;;12.90;99.90;;;;;;5071309;28;20529;-85
2023/03/30 08:25:21;;;;;;;18.65;4.03;;;11.50;99.90;;;;;;5069920;28;20044;-85
2023/03/30 08:27:51;;;;;;;21.00;4.10;;;11.60;99.90;;;;;;5070779;28;20480;-86
2023/03/30 08:30:18;;;;;;;20.88;4.13;;;11.50;99.90;;;;;;5069319;28;20036;-85
2023/03/30 08:32:44;;;;;;;25.25;4.15;;;11.40;99.90;;;;;;5053781;28;20445;-85
2023/03/30 08:35:11;;;;;;;23.15;5.28;;;11.40;99.90;;;;;;5053209;28;20059;-85
2023/03/30 08:37:38;;;;;;;24.92;4.53;;;;;;;;;;5038220;28;20087;-85
2023/03/30 08:40:07;;;;;;;22.80;4.32;;;11.40;99.90;;;;;;5055720;28;20057;-84
2023/03/30 08:42:47;;;;;;;23.77;4.72;;;11.30;99.90;;;;;;5070440;28;20055;-85
2023/03/30 08:45:13;;;;;;;19.60;4.30;;;11.20;99.90;;;;;;5065849;28;20100;-86
2023/03/30 08:47:47;;;;;;;29.92;6.32;;;11.30;99.90;;;;;;5053671;28;20041;-84
2023/03/30 08:50:35;;;;;;;27.45;4.53;;;11.20;99.90;;;;;;5069871;28;20151;-88
2023/03/30 08:53:06;;;;;;;23.52;4.47;;;9.20;99.90;;;;;;5068848;28;20045;-85
2023/03/30 08:55:41;;;;;;;25.90;5.13;;;11.40;99.90;;;;;;5069815;28;20036;-85
2023/03/30 08:58:34;;;;;;;31.55;5.13;;;11.50;99.90;;;;;;5069595;28;20040;-87
2023/03/30 09:01:09;;;;;;;30.85;5.57;;;11.60;99.90;;;;;;5069719;28;20033;-87
2023/03/30 09:03:58;;;;;;;26.17;5.10;;;11.60;99.90;;;;;;5053214;28;20047;-87
2023/03/30 09:06:42;;;;;;;26.48;5.30;;;11.70;99.90;;;;;;5048258;28;20048;-86
2023/03/30 09:09:13;;;;;;;21.38;4.82;;;11.70;99.90;;;;;;5069390;28;20411;-86
2023/03/30 09:11:40;;;;;;;27.65;4.85;;;;;;;;;;5070050;28;20086;-86
2023/03/30 09:14:14;;;;;;;27.85;5.45;;;11.70;99.90;;;;;;5068228;28;20043;-83
2023/03/30 09:16:59;;;;;;;24.02;4.93;;;12.40;99.90;;;;;;5070183;28;20067;-88
2023/03/30 09:19:29;;;;;;;;;;;13.30;99.90;;;;;;5062016;28;20149;-85
2023/03/30 09:21:57;;;;;;;21.52;4.72;;;13.30;99.90;;;;;;5052509;28;19920;-83
2023/03/30 09:24:28;;;;;;;24.23;4.32;;;11.90;99.90;;;;;;5078285;28;20594;-83
2023/03/30 09:27:42;;;;;;;24.85;4.63;;;11.90;99.90;;;;;;5052874;28;20035;-83
2023/03/30 09:30:36;;;;;;;24.20;4.95;;;12.00;99.90;;;;;;5066993;28;20060;-84
2023/03/30 09:33:13;;;;;;;25.10;4.15;;;12.10;99.90;;;;;;5071354;28;20036;-84
2023/03/30 09:35:55;;;;;;;21.63;5.15;;;13.30;99.90;;;;;;5070638;28;20043;-85
2023/03/30 09:38:22;;;;;;;30.67;4.15;;;12.20;99.90;;;;;;5069246;28;20048;-88
2023/03/30 09:40:50;;;;;;;22.45;4.28;;;12.20;99.90;;;;;;5070172;28;20071;-86
2023/03/30 09:43:32;;;;;;;25.17;4.95;;;13.70;99.90;;;;;;5074320;28;20067;-86
2023/03/30 09:45:59;;;;;;;24.38;6.00;;;14.70;99.90;;;;;;5053748;28;20048;-85
2023/03/30 09:48:25;;;;;;;17.77;3.70;;;14.00;99.90;;;;;;5069813;28;20033;-84
2023/03/30 09:50:51;;;;;;;19.02;3.38;;;12.20;99.90;;;;;;5070726;28;20365;-84
2023/03/30 09:53:24;;;;;;;21.58;3.60;;;14.60;99.90;;;;;;5069406;28;20496;-84
2023/03/30 09:56:06;;;;;;;20.13;4.07;;;12.10;99.90;;;;;;5068378;28;20037;-85
2023/03/30 09:58:33;;;;;;;19.17;3.63;;;12.00;99.90;;;;;;5063363;28;20044;-85
2023/03/30 10:01:07;;;;;;;22.17;3.42;;;12.00;99.90;;;;;;5070032;28;20120;-86
2023/03/30 10:03:35;;;;;;;23.97;4.70;;;12.00;99.90;;;;;;5069188;28;20093;-86
2023/03/30 10:06:02;;;;;;;21.40;4.38;;;12.00;99.90;;;;;;5070075;28;20070;-86
2023/03/30 10:08:27;;;;;;;23.58;4.38;;;12.00;99.90;;;;;;5052239;28;20527;-86
2023/03/30 10:10:55;;;;;;;23.88;4.63;;;12.00;99.90;;;;;;5051684;28;20036;-84
2023/03/30 10:13:36;;;;;;;31.63;4.00;;;11.90;99.90;;;;;;5068296;28;20028;-85
2023/03/30 10:16:20;;;;;;;22.98;3.92;;;14.50;99.90;;;;;;5067765;28;20028;-86
2023/03/30 10:18:46;;;;;;;15.95;3.42;;;11.90;99.90;;;;;;5070079;28;20111;-85
2023/03/30 10:21:21;;;;;;;14.88;3.38;;;12.90;99.90;;;;;;5067936;28;20173;-87
2023/03/30 10:24:00;;;;;;;18.20;3.60;;;14.20;99.90;;;;;;5068988;28;20036;-86
2023/03/30 10:26:29;;;;;;;18.35;3.78;;;14.10;99.90;;;;;;5060590;28;20449;-87
2023/03/30 10:29:01;;;;;;;19.98;3.72;;;12.00;99.90;;;;;;5051717;28;20036;-85
2023/03/30 10:31:27;;;;;;;20.38;4.80;;;12.00;99.90;;;;;;5044048;28;20040;-85
2023/03/30 10:33:58;;;;;;;21.17;4.00;;;12.00;99.90;;;;;;5068445;28;20041;-84
2023/03/30 10:36:38;;;;;;;18.10;4.50;;;12.00;99.90;;;;;;5060325;28;20335;-86
2023/03/30 10:39:07;;;;;;;16.73;3.13;;;11.90;99.90;;;;;;5066598;28;20057;-88
2023/03/30 10:41:36;;;;;;;21.85;4.22;;;12.00;99.90;;;;;;5069669;28;20087;-86
2023/03/30 10:44:23;;;;;;;19.83;4.13;;;12.00;99.90;;;;;;5071627;28;20124;-90
2023/03/30 10:46:52;;;;;;;19.55;4.18;;;11.90;99.90;;;;;;5070703;28;20048;-86
2023/03/30 10:49:45;;;;;;;25.90;5.28;;;12.50;99.90;;;;;;5051862;28;20128;-87
2023/03/30 10:52:26;;;;;;;20.05;4.13;;;13.20;99.90;;;;;;5066880;28;20556;-88
2023/03/30 10:55:01;;;;;;;18.13;4.25;;;12.10;99.90;;;;;;5068022;28;20094;-87
2023/03/30 10:57:59;;;;;;;21.45;4.45;;;12.10;99.90;;;;;;5043306;28;20058;-87
2023/03/30 11:00:51;;;;;;;26.77;4.97;;;12.10;99.90;;;;;;5056580;28;20098;-88
2023/03/30 11:03:23;;;;;;;30.10;6.00;;;12.20;99.90;;;;;;5038780;28;20512;-87
2023/03/30 11:05:51;;;;;;;23.20;4.15;;;12.20;99.90;;;;;;5067818;28;20036;-85
2023/03/30 11:09:03;;;;;;;29.52;4.65;;;12.20;99.90;;;;;;5069314;28;20110;-85
2023/03/30 11:11:58;;;;;;;26.05;4.55;;;10.60;99.90;;;;;;5063152;28;20037;-84
2023/03/30 11:14:32;;;;;;;21.65;4.78;;;12.30;99.90;;;;;;5035978;28;20052;-86
2023/03/30 11:17:07;;;;;;;28.90;4.43;;;12.40;99.90;;;;;;5067496;28;20049;-85
2023/03/30 11:19:50;;;;;;;22.30;3.47;;;12.60;99.90;;;;;;5050403;28;20537;-85
2023/03/30 11:22:35;;;;;;;19.08;3.83;;;12.60;99.90;;;;;;5049990;28;20531;-85
2023/03/30 11:25:06;;;;;;;19.45;2.83;;;12.60;99.90;;;;;;5050834;28;20074;-85
2023/03/30 11:27:42;;;;;;;21.10;3.30;;;13.00;99.90;;;;;;5066949;28;20060;-85
2023/03/30 11:30:14;;;;;;;15.98;3.60;;;12.90;99.90;;;;;;5066643;28;20052;-87
2023/03/30 11:32:54;;;;;;;22.23;4.10;;;12.90;99.90;;;;;;5066929;28;20585;-87
2023/03/30 11:35:28;;;;;;;20.13;3.85;;;12.90;99.90;;;;;;5066245;28;20565;-87
2023/03/30 11:38:35;;;;;;;20.65;4.28;;;12.90;99.90;;;;;;5068187;28;20040;-85
2023/03/30 11:41:12;;;;;;;20.38;3.40;;;13.10;99.90;;;;;;4985365;28;20050;-85
2023/03/30 11:43:38;;;;;;;22.25;4.07;;;13.30;99.90;;;;;;5056585;28;20049;-86
2023/03/30 11:46:26;;;;;;;27.00;5.15;;;14.10;99.90;;;;;;5066375;28;20484;-82
2023/03/30 11:49:16;;;;;;;20.90;3.85;;;13.50;99.90;;;;;;5066775;28;20488;-85
2023/03/30 11:51:48;;;;;;;21.42;4.88;;;13.60;99.90;;;;;;5061009;28;20044;-84
2023/03/30 11:54:53;;;;;;;19.25;3.60;;;13.50;99.90;;;;;;5065665;28;20502;-86
2023/03/30 11:57:22;;;;;;;;;;;13.50;99.90;;;;;;5067419;28;20598;-86
2023/03/30 12:00:02;;;;;;;18.10;3.15;;;13.50;99.90;;;;;;5067354;28;19920;-87
2023/03/30 12:02:33;;;;;;;21.38;3.95;;;13.50;99.90;;;;;;5058273;28;20043;-87
2023/03/30 12:05:23;;;;;;;24.08;4.63;;;13.40;99.90;;;;;;5067189;28;20048;-86
2023/03/30 12:08:18;;;;;;;23.17;4.00;;;13.30;99.90;;;;;;5062048;28;20098;-86
2023/03/30 12:10:47;;;;;;;13.23;2.77;;;13.40;99.90;;;;;;5031180;28;20048;-85
2023/03/30 12:13:15;;;;;;;28.10;5.25;;;13.40;99.90;;;;;;5067382;28;20330;-83
2023/03/30 12:15:56;;;;;;;26.17;5.53;;;13.40;99.90;;;;;;5049549;28;20041;-86
2023/03/30 12:18:31;;;;;;;24.55;5.18;;;13.30;99.90;;;;;;5066782;28;20049;-86
2023/03/30 12:21:09;;;;;;;21.23;4.68;;;13.40;99.90;;;;;;5066730;28;20127;-85
2023/03/30 12:23:46;;;;;;;22.88;4.72;;;13.30;99.90;;;;;;5058659;28;20040;-85
2023/03/30 12:26:30;;;;;;;26.00;4.63;;;13.30;99.90;;;;;;5066545;28;20075;-86
2023/03/30 12:29:07;;;;;;;18.80;4.10;;;13.40;99.90;;;;;;5049880;28;20488;-86
2023/03/30 12:31:53;;;;;;;19.50;4.30;;;13.40;99.90;;;;;;5058948;28;20413;-85
2023/03/30 12:34:20;;;;;;;24.08;3.90;;;13.40;99.90;;;;;;5066136;28;20051;-86
2023/03/30 12:36:55;;;;;;;18.98;3.92;;;14.60;99.90;;;;;;5050002;28;20032;-85
2023/03/30 12:39:43;;;;;;;17.40;3.40;;;13.50;99.90;;;;;;5067691;28;20052;-85
2023/03/30 12:42:32;;;;;;;18.17;4.63;;;13.70;99.90;;;;;;5066348;28;20060;-86
2023/03/30 12:45:21;;;;;;;18.05;3.72;;;13.70;99.90;;;;;;5068339;28;20377;-86
2023/03/30 12:48:07;;;;;;;20.35;3.70;;;13.70;99.90;;;;;;5046716;28;20048;-85
2023/03/30 12:50:42;;;;;;;23.23;4.95;;;13.70;99.90;;;;;;5041717;28;20480;-87
2023/03/30 12:53:16;;;;;;;24.40;4.88;;;13.80;99.90;;;;;;5049000;28;20045;-87
2023/03/30 12:55:52;;;;;;;19.38;4.13;;;13.80;99.90;;;;;;5066667;28;20115;-87
2023/03/30 12:58:23;;;;;;;18.38;4.15;;;13.80;99.90;;;;;;5048793;28;20106;-87
2023/03/30 13:01:11;;;;;;;19.48;3.90;;;13.80;99.90;;;;;;5067767;28;20161;-87
2023/03/30 13:03:58;;;;;;;35.13;4.70;;;13.90;99.90;;;;;;5044067;28;20427;-86
2023/03/30 13:06:31;;;;;;;21.15;4.75;;;14.00;99.90;;;;;;5068954;28;20056;-86